createdAt,value
2019-06-01T00:00:15.307Z,0.00
2019-06-01T00:01:15.273Z,0.00
2019-06-01T00:02:15.265Z,0.00
2019-06-01T00:03:15.249Z,0.00
2019-06-01T00:04:15.236Z,0.00
2019-06-01T00:05:15.230Z,0.00
2019-06-01T00:06:15.215Z,0.00
2019-06-01T00:07:15.205Z,0.00
2019-06-01T00:08:15.291Z,0.00
2019-06-01T00:09:15.190Z,0.00
2019-06-01T00:10:15.192Z,0.00
2019-06-01T00:11:15.166Z,0.00
2019-06-01T00:12:15.145Z,0.00
2019-06-01T00:13:15.137Z,0.00
2019-06-01T00:14:15.137Z,0.00
2019-06-01T00:15:15.128Z,0.00
2019-06-01T00:16:15.116Z,0.00
2019-06-01T00:17:15.095Z,0.00
2019-06-01T00:18:15.087Z,0.00
2019-06-01T00:19:15.086Z,0.00
2019-06-01T00:20:15.090Z,0.00
2019-06-01T00:21:15.056Z,0.00
2019-06-01T00:22:15.055Z,0.00
2019-06-01T00:23:15.035Z,0.00
2019-06-01T00:24:15.026Z,0.00
2019-06-01T00:25:15.036Z,0.00
2019-06-01T00:26:15.005Z,0.00
2019-06-01T00:27:14.994Z,0.00
2019-06-01T00:28:14.984Z,0.00
2019-06-01T00:29:14.975Z,0.00
2019-06-01T00:30:26.505Z,0.00
2019-06-01T00:31:15.954Z,0.00
2019-06-01T00:32:14.943Z,0.00
2019-06-01T00:33:14.933Z,0.00
2019-06-01T00:34:14.921Z,0.00
2019-06-01T00:35:15.009Z,0.00
2019-06-01T00:36:14.966Z,0.00
2019-06-01T00:37:14.914Z,0.00
2019-06-01T00:38:14.874Z,0.00
2019-06-01T00:39:14.869Z,0.00
2019-06-01T00:40:14.894Z,0.00
2019-06-01T00:41:14.854Z,0.00
2019-06-01T00:42:14.834Z,0.00
2019-06-01T00:43:14.835Z,0.00
2019-06-01T00:44:14.813Z,0.00
2019-06-01T00:45:14.832Z,0.00
2019-06-01T00:46:14.802Z,0.00
2019-06-01T00:47:14.801Z,0.00
2019-06-01T00:48:14.782Z,0.00
2019-06-01T00:49:14.777Z,0.00
2019-06-01T00:50:14.762Z,0.00
2019-06-01T00:51:14.764Z,0.00
2019-06-01T00:52:14.745Z,0.00
2019-06-01T00:53:14.733Z,0.00
2019-06-01T00:54:14.731Z,0.00
2019-06-01T00:55:14.712Z,0.00
2019-06-01T00:56:14.721Z,0.00
2019-06-01T00:57:14.697Z,0.00
2019-06-01T00:58:14.684Z,0.00
2019-06-01T00:59:14.671Z,0.00
2019-06-01T01:00:14.661Z,0.00
2019-06-01T01:01:14.661Z,0.00
2019-06-01T01:02:14.642Z,0.00
2019-06-01T01:03:14.692Z,0.00
2019-06-01T01:04:14.611Z,0.00
2019-06-01T01:05:14.613Z,0.00
2019-06-01T01:06:14.610Z,0.00
2019-06-01T01:07:14.590Z,0.00
2019-06-01T01:08:14.580Z,0.00
2019-06-01T01:09:14.560Z,0.00
2019-06-01T01:10:14.559Z,0.00
2019-06-01T01:11:14.559Z,0.00
2019-06-01T01:12:14.538Z,0.00
2019-06-01T01:13:14.536Z,0.00
2019-06-01T01:14:14.519Z,0.00
2019-06-01T01:15:14.615Z,0.00
2019-06-01T01:16:14.510Z,0.00
2019-06-01T01:17:14.491Z,0.00
2019-06-01T01:18:14.485Z,0.00
2019-06-01T01:19:14.472Z,0.00
2019-06-01T01:20:14.459Z,0.00
2019-06-01T01:21:14.458Z,0.00
2019-06-01T01:22:14.450Z,0.00
2019-06-01T01:23:14.438Z,0.00
2019-06-01T01:24:14.420Z,0.00
2019-06-01T01:25:14.417Z,0.00
2019-06-01T01:26:14.418Z,0.00
2019-06-01T01:27:14.398Z,0.00
2019-06-01T01:28:14.386Z,0.00
2019-06-01T01:29:14.367Z,0.00
2019-06-01T01:30:14.358Z,0.00
2019-06-01T01:31:14.575Z,0.00
2019-06-01T01:32:14.348Z,0.00
2019-06-01T01:33:14.336Z,0.00
2019-06-01T01:34:14.328Z,0.00
2019-06-01T01:35:14.309Z,0.00
2019-06-01T01:36:14.307Z,0.00
2019-06-01T01:37:14.286Z,0.00
2019-06-01T01:38:14.276Z,0.00
2019-06-01T01:39:14.266Z,0.00
2019-06-01T01:40:14.256Z,0.00
2019-06-01T01:41:14.259Z,0.00
2019-06-01T01:42:14.236Z,0.00
2019-06-01T01:43:14.256Z,0.00
2019-06-01T01:44:14.268Z,0.00
2019-06-01T01:45:14.206Z,0.00
2019-06-01T01:46:14.225Z,0.00
2019-06-01T01:47:14.494Z,0.00
2019-06-01T01:48:14.191Z,0.00
2019-06-01T01:49:14.175Z,0.00
2019-06-01T01:50:14.155Z,0.00
2019-06-01T01:51:14.145Z,0.00
2019-06-01T01:52:14.155Z,0.00
2019-06-01T01:53:14.135Z,0.00
2019-06-01T01:54:14.125Z,0.00
2019-06-01T01:55:14.114Z,0.00
2019-06-01T01:56:14.105Z,0.00
2019-06-01T01:57:14.112Z,0.00
2019-06-01T01:58:14.077Z,0.00
2019-06-01T01:59:14.064Z,0.00
2019-06-01T02:00:14.057Z,0.00
2019-06-01T02:01:22.279Z,0.00
2019-06-01T02:02:15.053Z,0.00
2019-06-01T02:03:14.028Z,0.00
2019-06-01T02:04:14.017Z,0.00
2019-06-01T02:05:14.013Z,0.00
2019-06-01T02:06:14.005Z,0.00
2019-06-01T02:07:13.993Z,0.00
2019-06-01T02:08:13.981Z,0.00
2019-06-01T02:09:13.973Z,0.00
2019-06-01T02:10:13.963Z,0.00
2019-06-01T02:11:13.952Z,0.00
2019-06-01T02:12:13.952Z,0.00
2019-06-01T02:13:13.930Z,0.00
2019-06-01T02:14:13.922Z,0.00
2019-06-01T02:15:13.902Z,0.00
2019-06-01T02:16:13.902Z,0.00
2019-06-01T02:17:13.899Z,0.00
2019-06-01T02:18:13.887Z,0.00
2019-06-01T02:19:13.870Z,0.00
2019-06-01T02:20:13.860Z,0.00
2019-06-01T02:21:13.850Z,0.00
2019-06-01T02:22:13.851Z,0.00
2019-06-01T02:23:13.844Z,0.00
2019-06-01T02:24:13.820Z,0.00
2019-06-01T02:25:13.810Z,0.00
2019-06-01T02:26:13.809Z,0.00
2019-06-01T02:27:13.838Z,0.00
2019-06-01T02:28:13.780Z,0.00
2019-06-01T02:29:13.771Z,0.00
2019-06-01T02:30:13.779Z,0.00
2019-06-01T02:31:13.750Z,0.00
2019-06-01T02:32:13.761Z,0.00
2019-06-01T02:33:13.732Z,0.00
2019-06-01T02:34:13.719Z,0.00
2019-06-01T02:35:13.714Z,0.00
2019-06-01T02:36:13.699Z,0.00
2019-06-01T02:37:13.708Z,0.00
2019-06-01T02:38:13.680Z,0.00
2019-06-01T02:39:13.688Z,0.00
2019-06-01T02:40:13.670Z,0.00
2019-06-01T02:41:13.659Z,0.00
2019-06-01T02:42:13.658Z,0.00
2019-06-01T02:43:13.647Z,0.00
2019-06-01T02:44:13.631Z,0.00
2019-06-01T02:45:13.620Z,0.00
2019-06-01T02:46:13.607Z,0.00
2019-06-01T02:47:13.622Z,0.00
2019-06-01T02:48:13.600Z,0.00
2019-06-01T02:49:13.578Z,0.00
2019-06-01T02:50:13.574Z,0.00
2019-06-01T02:51:13.566Z,0.00
2019-06-01T02:52:13.568Z,0.00
2019-06-01T02:53:13.552Z,0.00
2019-06-01T02:54:13.536Z,0.00
2019-06-01T02:55:13.527Z,0.00
2019-06-01T02:56:13.517Z,0.00
2019-06-01T02:57:13.518Z,0.00
2019-06-01T02:58:13.498Z,0.00
2019-06-01T02:59:13.487Z,0.00
2019-06-01T03:00:13.470Z,0.00
2019-06-01T03:01:13.456Z,0.00
2019-06-01T03:02:15.023Z,0.00
2019-06-01T03:03:13.435Z,0.00
2019-06-01T03:04:13.446Z,0.00
2019-06-01T03:05:13.455Z,0.00
2019-06-01T03:06:13.438Z,0.00
2019-06-01T03:07:13.425Z,0.00
2019-06-01T03:08:13.396Z,0.00
2019-06-01T03:09:13.406Z,0.00
2019-06-01T03:10:13.388Z,0.00
2019-06-01T03:11:13.377Z,0.00
2019-06-01T03:12:13.355Z,0.00
2019-06-01T03:13:13.365Z,0.00
2019-06-01T03:14:13.362Z,0.00
2019-06-01T03:15:13.329Z,0.00
2019-06-01T03:16:13.314Z,0.00
2019-06-01T03:17:13.304Z,0.00
2019-06-01T03:18:13.294Z,0.00
2019-06-01T03:19:13.286Z,0.00
2019-06-01T03:20:13.265Z,0.00
2019-06-01T03:21:13.263Z,0.00
2019-06-01T03:22:13.255Z,0.00
2019-06-01T03:23:13.273Z,0.00
2019-06-01T03:24:13.517Z,0.00
2019-06-01T03:25:13.232Z,0.00
2019-06-01T03:26:13.223Z,0.00
2019-06-01T03:27:13.212Z,0.00
2019-06-01T03:28:13.223Z,0.00
2019-06-01T03:29:13.201Z,0.00
2019-06-01T03:30:15.686Z,0.00
2019-06-01T03:31:13.379Z,0.00
2019-06-01T03:32:29.716Z,0.00
2019-06-01T03:33:14.566Z,0.00
2019-06-01T03:34:13.976Z,5.62
2019-06-01T03:35:13.199Z,5.62
2019-06-01T03:36:13.180Z,5.62
2019-06-01T03:37:13.415Z,5.62
2019-06-01T03:38:13.120Z,5.62
2019-06-01T03:39:13.227Z,5.62
2019-06-01T03:40:23.118Z,5.62
2019-06-01T03:41:14.067Z,5.62
2019-06-01T03:42:13.062Z,5.62
2019-06-01T03:43:13.061Z,5.62
2019-06-01T03:44:13.146Z,5.62
2019-06-01T03:45:13.243Z,5.62
2019-06-01T03:46:13.151Z,11.25
2019-06-01T03:47:13.012Z,11.25
2019-06-01T03:48:13.045Z,11.25
2019-06-01T03:49:12.990Z,11.25
2019-06-01T03:50:13.291Z,11.25
2019-06-01T03:51:12.960Z,11.25
2019-06-01T03:52:13.153Z,11.25
2019-06-01T03:53:12.963Z,11.25
2019-06-01T03:54:13.239Z,11.25
2019-06-01T03:55:12.930Z,11.25
2019-06-01T03:56:12.914Z,16.88
2019-06-01T03:57:12.912Z,16.88
2019-06-01T03:58:12.908Z,16.88
2019-06-01T03:59:12.889Z,16.88
2019-06-01T04:00:12.878Z,16.88
2019-06-01T04:01:12.867Z,16.88
2019-06-01T04:02:12.866Z,16.88
2019-06-01T04:03:12.857Z,16.88
2019-06-01T04:04:12.836Z,16.88
2019-06-01T04:05:12.825Z,16.88
2019-06-01T04:06:12.807Z,22.50
2019-06-01T04:07:12.817Z,22.50
2019-06-01T04:08:12.810Z,22.50
2019-06-01T04:09:12.789Z,22.50
2019-06-01T04:10:12.785Z,22.50
2019-06-01T04:11:12.757Z,22.50
2019-06-01T04:12:12.748Z,22.50
2019-06-01T04:13:12.757Z,22.50
2019-06-01T04:14:12.741Z,22.50
2019-06-01T04:15:16.236Z,22.50
2019-06-01T04:16:12.717Z,28.12
2019-06-01T04:17:12.704Z,28.12
2019-06-01T04:18:13.958Z,28.12
2019-06-01T04:19:12.756Z,28.12
2019-06-01T04:20:12.754Z,28.12
2019-06-01T04:21:12.688Z,28.12
2019-06-01T04:22:12.657Z,28.12
2019-06-01T04:23:12.647Z,28.12
2019-06-01T04:24:12.660Z,28.12
2019-06-01T04:25:12.630Z,28.12
2019-06-01T04:26:12.630Z,28.12
2019-06-01T04:27:12.602Z,28.12
2019-06-01T04:28:12.746Z,28.12
2019-06-01T04:29:12.708Z,33.75
2019-06-01T04:30:13.710Z,33.75
2019-06-01T04:31:12.828Z,33.75
2019-06-01T04:32:12.881Z,33.75
2019-06-01T04:33:13.285Z,33.75
2019-06-01T04:34:13.099Z,33.75
2019-06-01T04:35:13.234Z,33.75
2019-06-01T04:36:13.091Z,33.75
2019-06-01T04:37:13.346Z,33.75
2019-06-01T04:38:13.418Z,33.75
2019-06-01T04:39:13.637Z,33.75
2019-06-01T04:40:13.625Z,33.75
2019-06-01T04:41:13.979Z,33.75
2019-06-01T04:42:12.469Z,33.75
2019-06-01T04:43:12.472Z,39.38
2019-06-01T04:44:12.442Z,39.38
2019-06-01T04:45:12.616Z,39.38
2019-06-01T04:46:12.459Z,39.38
2019-06-01T04:47:12.596Z,39.38
2019-06-01T04:48:12.553Z,39.38
2019-06-01T04:49:13.396Z,39.38
2019-06-01T04:50:13.137Z,39.38
2019-06-01T04:51:13.501Z,39.38
2019-06-01T04:52:13.562Z,39.38
2019-06-01T04:53:13.418Z,39.38
2019-06-01T04:54:14.427Z,39.38
2019-06-01T04:55:13.052Z,39.38
2019-06-01T04:56:13.105Z,39.38
2019-06-01T04:57:13.051Z,39.38
2019-06-01T04:58:13.055Z,39.38
2019-06-01T04:59:13.003Z,39.38
2019-06-01T05:00:25.790Z,39.38
2019-06-01T05:01:13.269Z,45.00
2019-06-01T05:02:13.151Z,45.00
2019-06-01T05:03:13.494Z,45.00
2019-06-01T05:04:13.267Z,45.00
2019-06-01T05:05:13.293Z,45.00
2019-06-01T05:06:13.410Z,45.00
2019-06-01T05:07:13.364Z,45.00
2019-06-01T05:08:12.671Z,45.00
2019-06-01T05:09:13.297Z,45.00
2019-06-01T05:10:14.134Z,45.00
2019-06-01T05:11:13.443Z,45.00
2019-06-01T05:12:13.512Z,45.00
2019-06-01T05:13:12.165Z,45.00
2019-06-01T05:14:12.147Z,45.00
2019-06-01T05:15:12.147Z,45.00
2019-06-01T05:16:14.409Z,45.00
2019-06-01T05:17:13.418Z,45.00
2019-06-01T05:18:12.178Z,45.00
2019-06-01T05:19:12.299Z,45.00
2019-06-01T05:20:12.552Z,45.00
2019-06-01T05:21:12.834Z,50.62
2019-06-01T05:22:12.575Z,50.62
2019-06-01T05:23:12.685Z,50.62
2019-06-01T05:24:12.699Z,50.62
2019-06-01T05:25:13.506Z,50.62
2019-06-01T05:26:13.164Z,50.62
2019-06-01T05:27:13.068Z,50.62
2019-06-01T05:28:13.234Z,50.62
2019-06-01T05:29:13.434Z,50.62
2019-06-01T05:30:12.005Z,50.62
2019-06-01T05:31:19.015Z,50.62
2019-06-01T05:32:12.977Z,50.62
2019-06-01T05:33:24.667Z,50.62
2019-06-01T05:34:13.813Z,50.62
2019-06-01T05:35:11.969Z,50.62
2019-06-01T05:36:12.071Z,50.62
2019-06-01T05:37:12.363Z,50.62
2019-06-01T05:38:12.212Z,50.62
2019-06-01T05:39:12.340Z,50.62
2019-06-01T05:40:12.474Z,50.62
2019-06-01T05:41:13.151Z,50.62
2019-06-01T05:42:12.558Z,56.25
2019-06-01T05:43:15.685Z,56.25
2019-06-01T05:44:12.895Z,56.25
2019-06-01T05:45:12.928Z,56.25
2019-06-01T05:46:11.901Z,56.25
2019-06-01T05:47:12.175Z,56.25
2019-06-01T05:48:13.151Z,56.25
2019-06-01T05:49:13.257Z,56.25
2019-06-01T05:50:12.244Z,56.25
2019-06-01T05:51:13.696Z,56.25
2019-06-01T05:52:12.417Z,56.25
2019-06-01T05:53:12.487Z,56.25
2019-06-01T05:54:12.536Z,56.25
2019-06-01T05:55:12.845Z,56.25
2019-06-01T05:56:12.709Z,56.25
2019-06-01T05:57:12.671Z,56.25
2019-06-01T05:58:12.856Z,56.25
2019-06-01T05:59:11.929Z,56.25
2019-06-01T06:00:13.005Z,56.25
2019-06-01T06:01:12.388Z,56.25
2019-06-01T06:02:11.664Z,61.88
2019-06-01T06:03:14.955Z,61.88
2019-06-01T06:04:11.661Z,61.88
2019-06-01T06:05:12.558Z,61.88
2019-06-01T06:06:11.734Z,61.88
2019-06-01T06:07:12.736Z,61.88
2019-06-01T06:08:12.710Z,61.88
2019-06-01T06:09:12.075Z,61.88
2019-06-01T06:10:11.851Z,61.88
2019-06-01T06:11:12.834Z,61.88
2019-06-01T06:12:11.578Z,61.88
2019-06-01T06:13:11.560Z,61.88
2019-06-01T06:14:11.565Z,61.88
2019-06-01T06:15:11.559Z,61.88
2019-06-01T06:16:11.686Z,61.88
2019-06-01T06:17:13.775Z,61.88
2019-06-01T06:18:11.724Z,61.88
2019-06-01T06:19:12.547Z,61.88
2019-06-01T06:20:11.831Z,61.88
2019-06-01T06:21:12.577Z,61.88
2019-06-01T06:22:12.016Z,61.88
2019-06-01T06:23:12.244Z,61.88
2019-06-01T06:24:12.175Z,61.88
2019-06-01T06:25:14.017Z,61.88
2019-06-01T06:26:11.492Z,61.88
2019-06-01T06:27:12.355Z,67.50
2019-06-01T06:28:12.462Z,67.50
2019-06-01T06:29:12.657Z,67.50
2019-06-01T06:30:11.397Z,67.50
2019-06-01T06:31:11.382Z,67.50
2019-06-01T06:32:11.367Z,67.50
2019-06-01T06:33:11.375Z,67.50
2019-06-01T06:34:11.347Z,67.50
2019-06-01T06:35:11.336Z,67.50
2019-06-01T06:36:11.337Z,67.50
2019-06-01T06:37:11.314Z,67.50
2019-06-01T06:38:11.297Z,67.50
2019-06-01T06:39:11.296Z,67.50
2019-06-01T06:40:11.284Z,67.50
2019-06-01T06:41:11.296Z,67.50
2019-06-01T06:42:11.256Z,67.50
2019-06-01T06:43:22.106Z,67.50
2019-06-01T06:44:12.236Z,67.50
2019-06-01T06:45:11.234Z,67.50
2019-06-01T06:46:11.237Z,67.50
2019-06-01T06:47:11.206Z,67.50
2019-06-01T06:48:11.203Z,67.50
2019-06-01T06:49:11.186Z,67.50
2019-06-01T06:50:14.059Z,67.50
2019-06-01T06:51:11.184Z,67.50
2019-06-01T06:52:11.161Z,67.50
2019-06-01T06:53:24.536Z,67.50
2019-06-01T06:54:14.530Z,67.50
2019-06-01T06:55:11.123Z,67.50
2019-06-01T06:56:11.124Z,67.50
2019-06-01T06:57:11.103Z,67.50
2019-06-01T06:58:11.089Z,67.50
2019-06-01T06:59:11.804Z,67.50
2019-06-01T07:00:11.069Z,67.50
2019-06-01T07:01:12.197Z,67.50
2019-06-01T07:02:11.043Z,67.50
2019-06-01T07:03:11.033Z,67.50
2019-06-01T07:04:12.975Z,67.50
2019-06-01T07:05:11.004Z,67.50
2019-06-01T07:06:11.012Z,67.50
2019-06-01T07:07:11.003Z,73.12
2019-06-01T07:08:10.975Z,73.12
2019-06-01T07:09:10.977Z,73.12
2019-06-01T07:10:10.968Z,73.12
2019-06-01T07:11:12.043Z,73.12
2019-06-01T07:12:10.925Z,73.12
2019-06-01T07:13:10.914Z,73.12
2019-06-01T07:14:10.909Z,73.12
2019-06-01T07:15:10.906Z,73.12
2019-06-01T07:16:10.908Z,73.12
2019-06-01T07:17:10.881Z,73.12
2019-06-01T07:18:10.861Z,73.12
2019-06-01T07:19:10.865Z,73.12
2019-06-01T07:20:10.841Z,73.12
2019-06-01T07:21:10.843Z,73.12
2019-06-01T07:22:10.828Z,73.12
2019-06-01T07:23:10.807Z,73.12
2019-06-01T07:24:10.793Z,73.12
2019-06-01T07:25:10.787Z,73.12
2019-06-01T07:26:10.781Z,73.12
2019-06-01T07:27:10.785Z,73.12
2019-06-01T07:28:10.772Z,73.12
2019-06-01T07:29:10.731Z,73.12
2019-06-01T07:30:10.741Z,73.12
2019-06-01T07:31:10.721Z,73.12
2019-06-01T07:32:10.691Z,67.50
2019-06-01T07:33:10.691Z,67.50
2019-06-01T07:34:10.684Z,73.12
2019-06-01T07:35:10.650Z,67.50
2019-06-01T07:36:10.660Z,73.12
2019-06-01T07:37:10.639Z,73.12
2019-06-01T07:38:10.621Z,73.12
2019-06-01T07:39:10.623Z,73.12
2019-06-01T07:40:13.665Z,73.12
2019-06-01T07:41:10.600Z,73.12
2019-06-01T07:42:10.642Z,73.12
2019-06-01T07:43:10.564Z,73.12
2019-06-01T07:44:10.550Z,73.12
2019-06-01T07:45:10.539Z,73.12
2019-06-01T07:46:10.539Z,73.12
2019-06-01T07:47:10.514Z,73.12
2019-06-01T07:48:10.501Z,73.12
2019-06-01T07:49:10.499Z,73.12
2019-06-01T07:50:10.502Z,73.12
2019-06-01T07:51:10.505Z,73.12
2019-06-01T07:52:13.279Z,73.12
2019-06-01T07:53:10.439Z,73.12
2019-06-01T07:54:10.419Z,73.12
2019-06-01T07:55:10.412Z,67.50
2019-06-01T07:56:10.399Z,67.50
2019-06-01T07:57:10.399Z,73.12
2019-06-01T07:58:10.387Z,73.12
2019-06-01T07:59:10.359Z,73.12
2019-06-01T08:00:10.348Z,73.12
2019-06-01T08:01:10.341Z,73.12
2019-06-01T08:02:10.342Z,67.50
2019-06-01T08:03:10.322Z,73.12
2019-06-01T08:04:10.299Z,73.12
2019-06-01T08:05:10.288Z,73.12
2019-06-01T08:06:10.278Z,73.12
2019-06-01T08:07:10.305Z,73.12
2019-06-01T08:08:10.259Z,73.12
2019-06-01T08:09:10.240Z,73.12
2019-06-01T08:10:10.227Z,73.12
2019-06-01T08:11:10.218Z,73.12
2019-06-01T08:12:10.288Z,73.12
2019-06-01T08:13:10.198Z,73.12
2019-06-01T08:14:10.179Z,73.12
2019-06-01T08:15:10.174Z,73.12
2019-06-01T08:16:10.160Z,73.12
2019-06-01T08:17:10.168Z,73.12
2019-06-01T08:18:10.138Z,73.12
2019-06-01T08:19:10.141Z,73.12
2019-06-01T08:20:10.123Z,73.12
2019-06-01T08:21:10.108Z,78.75
2019-06-01T08:22:10.213Z,78.75
2019-06-01T08:23:10.087Z,78.75
2019-06-01T08:24:10.111Z,78.75
2019-06-01T08:25:10.067Z,78.75
2019-06-01T08:26:10.058Z,78.75
2019-06-01T08:27:10.050Z,78.75
2019-06-01T08:28:10.028Z,78.75
2019-06-01T08:29:10.017Z,78.75
2019-06-01T08:30:09.997Z,78.75
2019-06-01T08:31:09.988Z,78.75
2019-06-01T08:32:09.995Z,78.75
2019-06-01T08:33:09.978Z,78.75
2019-06-01T08:34:09.995Z,78.75
2019-06-01T08:35:09.948Z,78.75
2019-06-01T08:36:09.928Z,78.75
2019-06-01T08:37:09.940Z,78.75
2019-06-01T08:38:09.908Z,78.75
2019-06-01T08:39:09.900Z,78.75
2019-06-01T08:40:09.877Z,78.75
2019-06-01T08:41:09.867Z,78.75
2019-06-01T08:42:09.877Z,78.75
2019-06-01T08:43:09.864Z,78.75
2019-06-01T08:44:09.837Z,78.75
2019-06-01T08:45:09.827Z,78.75
2019-06-01T08:46:09.817Z,78.75
2019-06-01T08:47:09.817Z,78.75
2019-06-01T08:48:09.818Z,78.75
2019-06-01T08:49:09.777Z,78.75
2019-06-01T08:50:09.767Z,78.75
2019-06-01T08:51:09.766Z,78.75
2019-06-01T08:52:09.770Z,73.12
2019-06-01T08:53:09.751Z,73.12
2019-06-01T08:54:09.731Z,73.12
2019-06-01T08:55:09.715Z,73.12
2019-06-01T08:56:12.695Z,78.75
2019-06-01T08:57:09.707Z,78.75
2019-06-01T08:58:09.688Z,73.12
2019-06-01T08:59:09.678Z,73.12
2019-06-01T09:00:09.665Z,78.75
2019-06-01T09:01:09.646Z,78.75
2019-06-01T09:02:09.653Z,78.75
2019-06-01T09:03:09.626Z,78.75
2019-06-01T09:04:09.618Z,78.75
2019-06-01T09:05:23.403Z,78.75
2019-06-01T09:06:10.596Z,78.75
2019-06-01T09:07:09.596Z,78.75
2019-06-01T09:08:09.570Z,78.75
2019-06-01T09:09:11.872Z,78.75
2019-06-01T09:10:09.545Z,84.38
2019-06-01T09:11:09.535Z,84.38
2019-06-01T09:12:09.555Z,84.38
2019-06-01T09:13:09.545Z,84.38
2019-06-01T09:14:09.507Z,84.38
2019-06-01T09:15:09.571Z,84.38
2019-06-01T09:16:09.579Z,84.38
2019-06-01T09:17:09.499Z,84.38
2019-06-01T09:18:09.469Z,84.38
2019-06-01T09:19:11.287Z,84.38
2019-06-01T09:20:09.435Z,84.38
2019-06-01T09:21:09.435Z,84.38
2019-06-01T09:22:09.435Z,84.38
2019-06-01T09:23:09.409Z,84.38
2019-06-01T09:24:09.395Z,84.38
2019-06-01T09:25:09.381Z,84.38
2019-06-01T09:26:09.376Z,84.38
2019-06-01T09:27:09.379Z,84.38
2019-06-01T09:28:09.345Z,84.38
2019-06-01T09:29:09.337Z,84.38
2019-06-01T09:30:09.337Z,84.38
2019-06-01T09:31:09.316Z,84.38
2019-06-01T09:32:11.127Z,84.38
2019-06-01T09:33:09.304Z,84.38
2019-06-01T09:34:09.287Z,84.38
2019-06-01T09:35:09.275Z,84.38
2019-06-01T09:36:09.266Z,84.38
2019-06-01T09:37:09.265Z,84.38
2019-06-01T09:38:09.259Z,84.38
2019-06-01T09:39:09.229Z,84.38
2019-06-01T09:40:09.233Z,84.38
2019-06-01T09:41:09.275Z,84.38
2019-06-01T09:42:09.195Z,84.38
2019-06-01T09:43:09.206Z,84.38
2019-06-01T09:44:09.185Z,84.38
2019-06-01T09:45:09.167Z,84.38
2019-06-01T09:46:09.172Z,84.38
2019-06-01T09:47:09.167Z,84.38
2019-06-01T09:48:09.148Z,84.38
2019-06-01T09:49:09.126Z,84.38
2019-06-01T09:50:09.107Z,84.38
2019-06-01T09:51:09.111Z,90.00
2019-06-01T09:52:12.255Z,84.38
2019-06-01T09:53:09.107Z,84.38
2019-06-01T09:54:09.071Z,84.38
2019-06-01T09:55:09.067Z,84.38
2019-06-01T09:56:09.044Z,84.38
2019-06-01T09:57:09.035Z,84.38
2019-06-01T09:58:09.035Z,84.38
2019-06-01T09:59:09.014Z,90.00
2019-06-01T10:00:09.010Z,90.00
2019-06-01T10:01:09.060Z,90.00
2019-06-01T10:02:08.999Z,90.00
2019-06-01T10:03:08.999Z,90.00
2019-06-01T10:04:08.976Z,90.00
2019-06-01T10:05:08.957Z,90.00
2019-06-01T10:06:08.944Z,90.00
2019-06-01T10:07:08.925Z,90.00
2019-06-01T10:08:08.925Z,90.00
2019-06-01T10:09:08.906Z,90.00
2019-06-01T10:10:08.888Z,90.00
2019-06-01T10:11:08.875Z,90.00
2019-06-01T10:12:08.875Z,90.00
2019-06-01T10:13:08.871Z,90.00
2019-06-01T10:14:08.847Z,90.00
2019-06-01T10:15:08.835Z,90.00
2019-06-01T10:16:08.825Z,90.00
2019-06-01T10:17:08.814Z,90.00
2019-06-01T10:18:08.815Z,90.00
2019-06-01T10:19:08.786Z,90.00
2019-06-01T10:20:08.782Z,90.00
2019-06-01T10:21:08.796Z,90.00
2019-06-01T10:22:08.755Z,90.00
2019-06-01T10:23:08.809Z,90.00
2019-06-01T10:24:08.759Z,90.00
2019-06-01T10:25:08.746Z,90.00
2019-06-01T10:26:08.715Z,90.00
2019-06-01T10:27:08.710Z,90.00
2019-06-01T10:28:08.715Z,90.00
2019-06-01T10:29:08.684Z,90.00
2019-06-01T10:30:08.682Z,90.00
2019-06-01T10:31:08.665Z,90.00
2019-06-01T10:32:08.659Z,90.00
2019-06-01T10:33:08.637Z,95.62
2019-06-01T10:34:08.646Z,95.62
2019-06-01T10:35:08.623Z,90.00
2019-06-01T10:36:20.078Z,90.00
2019-06-01T10:37:09.598Z,95.62
2019-06-01T10:38:08.593Z,95.62
2019-06-01T10:39:08.589Z,90.00
2019-06-01T10:40:08.565Z,90.00
2019-06-01T10:41:08.555Z,90.00
2019-06-01T10:42:08.546Z,90.00
2019-06-01T10:43:08.540Z,90.00
2019-06-01T10:44:08.538Z,90.00
2019-06-01T10:45:08.513Z,90.00
2019-06-01T10:46:08.515Z,95.62
2019-06-01T10:47:08.513Z,90.00
2019-06-01T10:48:08.489Z,95.62
2019-06-01T10:49:08.478Z,95.62
2019-06-01T10:50:08.488Z,95.62
2019-06-01T10:51:08.455Z,95.62
2019-06-01T10:52:08.436Z,95.62
2019-06-01T10:53:10.728Z,95.62
2019-06-01T10:54:08.426Z,95.62
2019-06-01T10:55:08.405Z,95.62
2019-06-01T10:56:08.400Z,95.62
2019-06-01T10:57:08.385Z,95.62
2019-06-01T10:58:08.373Z,95.62
2019-06-01T10:59:08.378Z,95.62
2019-06-01T11:00:08.355Z,95.62
2019-06-01T11:01:08.350Z,95.62
2019-06-01T11:02:08.332Z,95.62
2019-06-01T11:03:08.965Z,95.62
2019-06-01T11:04:08.383Z,95.62
2019-06-01T11:05:08.300Z,95.62
2019-06-01T11:06:09.005Z,95.62
2019-06-01T11:07:09.666Z,95.62
2019-06-01T11:08:08.266Z,95.62
2019-06-01T11:09:08.266Z,95.62
2019-06-01T11:10:08.247Z,95.62
2019-06-01T11:11:08.232Z,95.62
2019-06-01T11:12:08.224Z,95.62
2019-06-01T11:13:08.205Z,95.62
2019-06-01T11:14:08.221Z,95.62
2019-06-01T11:15:08.191Z,95.62
2019-06-01T11:16:08.175Z,95.62
2019-06-01T11:17:08.410Z,95.62
2019-06-01T11:18:09.450Z,95.62
2019-06-01T11:19:08.161Z,95.62
2019-06-01T11:20:08.125Z,95.62
2019-06-01T11:21:08.118Z,95.62
2019-06-01T11:22:08.106Z,95.62
2019-06-01T11:23:08.097Z,95.62
2019-06-01T11:24:08.098Z,95.62
2019-06-01T11:25:08.075Z,95.62
2019-06-01T11:26:08.064Z,90.00
2019-06-01T11:27:08.045Z,90.00
2019-06-01T11:28:08.047Z,90.00
2019-06-01T11:29:08.040Z,90.00
2019-06-01T11:30:08.016Z,90.00
2019-06-01T11:31:08.006Z,90.00
2019-06-01T11:32:07.998Z,90.00
2019-06-01T11:33:07.985Z,90.00
2019-06-01T11:34:07.995Z,90.00
2019-06-01T11:35:07.959Z,90.00
2019-06-01T11:36:07.954Z,90.00
2019-06-01T11:37:08.013Z,90.00
2019-06-01T11:38:07.938Z,90.00
2019-06-01T11:39:07.947Z,90.00
2019-06-01T11:40:07.917Z,90.00
2019-06-01T11:41:07.897Z,90.00
2019-06-01T11:42:07.887Z,90.00
2019-06-01T11:43:07.875Z,90.00
2019-06-01T11:44:07.864Z,90.00
2019-06-01T11:45:07.867Z,90.00
2019-06-01T11:46:07.847Z,95.62
2019-06-01T11:47:07.847Z,95.62
2019-06-01T11:48:07.816Z,95.62
2019-06-01T11:49:07.807Z,95.62
2019-06-01T11:50:07.806Z,95.62
2019-06-01T11:51:07.785Z,95.62
2019-06-01T11:52:07.766Z,95.62
2019-06-01T11:53:07.756Z,95.62
2019-06-01T11:54:07.747Z,95.62
2019-06-01T11:55:07.745Z,95.62
2019-06-01T11:56:07.727Z,95.62
2019-06-01T11:57:07.717Z,95.62
2019-06-01T11:58:07.742Z,95.62
2019-06-01T11:59:07.696Z,95.62
2019-06-01T12:00:07.703Z,95.62
2019-06-01T12:01:07.668Z,101.25
2019-06-01T12:02:07.664Z,101.25
2019-06-01T12:03:07.661Z,101.25
2019-06-01T12:04:07.640Z,101.25
2019-06-01T12:05:07.637Z,101.25
2019-06-01T12:06:07.615Z,101.25
2019-06-01T12:07:17.536Z,101.25
2019-06-01T12:08:08.606Z,101.25
2019-06-01T12:09:07.580Z,101.25
2019-06-01T12:10:07.576Z,101.25
2019-06-01T12:11:07.567Z,101.25
2019-06-01T12:12:07.547Z,101.25
2019-06-01T12:13:07.540Z,106.88
2019-06-01T12:14:07.528Z,106.88
2019-06-01T12:15:07.526Z,106.88
2019-06-01T12:16:07.510Z,106.88
2019-06-01T12:17:07.496Z,106.88
2019-06-01T12:18:07.492Z,106.88
2019-06-01T12:19:07.476Z,112.50
2019-06-01T12:20:07.499Z,112.50
2019-06-01T12:21:07.459Z,112.50
2019-06-01T12:22:07.461Z,112.50
2019-06-01T12:23:07.426Z,112.50
2019-06-01T12:24:07.434Z,118.12
2019-06-01T12:25:07.419Z,118.12
2019-06-01T12:26:07.390Z,118.12
2019-06-01T12:27:07.380Z,118.12
2019-06-01T12:28:07.376Z,118.12
2019-06-01T12:29:07.386Z,118.12
2019-06-01T12:30:07.381Z,123.75
2019-06-01T12:31:07.345Z,123.75
2019-06-01T12:32:07.356Z,123.75
2019-06-01T12:33:07.317Z,123.75
2019-06-01T12:34:07.323Z,123.75
2019-06-01T12:35:07.328Z,123.75
2019-06-01T12:36:07.291Z,123.75
2019-06-01T12:37:07.286Z,129.38
2019-06-01T12:38:07.298Z,129.38
2019-06-01T12:39:07.247Z,129.38
2019-06-01T12:40:07.895Z,129.38
2019-06-01T12:41:07.260Z,129.38
2019-06-01T12:42:07.334Z,129.38
2019-06-01T12:43:07.212Z,129.38
2019-06-01T12:44:07.205Z,129.38
2019-06-01T12:45:07.212Z,129.38
2019-06-01T12:46:07.985Z,135.00
2019-06-01T12:47:07.168Z,135.00
2019-06-01T12:48:07.187Z,135.00
2019-06-01T12:49:07.141Z,135.00
2019-06-01T12:50:07.194Z,135.00
2019-06-01T12:51:07.150Z,135.00
2019-06-01T12:52:07.127Z,135.00
2019-06-01T12:53:07.099Z,140.62
2019-06-01T12:54:07.109Z,140.62
2019-06-01T12:55:07.087Z,140.62
2019-06-01T12:56:07.118Z,140.62
2019-06-01T12:57:07.173Z,140.62
2019-06-01T12:58:07.048Z,140.62